Flood From: 22-02-2018 16:00 Until: 23-02-2018 16:00 warning for: Flood Level: Yellow info button

Although rather usual in this region, locally or potentially dangerous phenomena are expected. (such as local winds, summer thunderstorms, rising streams or high waves) Be aware and pay attention to the latest weather updates, especially if you carry out activities exposed to weather or close to a stream or shoreline. 


Meteo18 Weather Cam more information Meteo18 Weather Cam


Thunder radar more information blitzortung!


Rain radar more information rain snow radar


Visit our other weather sites:

Template documentation
and downloads

And another site



Weather Underground History page Text

Daily Summary for August 26, 2017 Units:  Metric    English   Both
« Previous Day
Next Day »
Daily Weekly Monthly Yearly Custom
  High: Low: Average:
Temperature: -17.8 °C -8.6 °C -4.4 °C
Dew Point: -17.8 °C -9.1 °C -7.7 °C
Humidity: Humidity % 44 % 72 %
Wind Speed: 0 km/h 0 km/h 3.1 km/h
Wind Gust: 0 km/h - -
Wind:- - SSE
Pressure: 0 hPa 34361.1 hPa -
Precipitation: 0 mm    
Historical Graphs
 
 
Tabular Data for August 26, 2017
Time Temperature Dew Point Pressure Wind Wind Speed Wind Gust Humidity Rainfall Rate (Hourly)
-17.8 °C -17.8 °C 0 hPa Calm     Humidity % 0 mm
00:02 -6.7 °C -7.8 °C 34442.4 hPa Calm     88 % 0 mm
00:12 -6.8 °C -7.8 °C 34442.4 hPa Calm     89 % 0 mm
00:17 -6.8 °C -7.9 °C 34442.4 hPa Calm     89 % 0 mm
00:22 -6.9 °C -7.9 °C 34442.4 hPa Calm     89 % 0 mm
00:32 -7 °C -8.1 °C 34442.4 hPa Calm     89 % 0 mm
00:42 -7 °C -7.9 °C 34442.4 hPa Calm     90 % 0 mm
00:47 -7 °C -8.1 °C 34442.4 hPa Calm     89 % 0 mm
00:52 -6.9 °C -7.9 °C 34428.8 hPa Calm     90 % 0 mm
01:02 -7 °C -8.1 °C 34428.8 hPa Calm     89 % 0 mm
01:12 -6.9 °C -8 °C 34428.8 hPa Calm     89 % 0 mm
01:17 -7.1 °C -8.1 °C 34442.4 hPa Calm     89 % 0 mm
01:22 -7.1 °C -8.2 °C 34442.4 hPa Calm     89 % 0 mm
01:27 -7.2 °C -8.1 °C 34442.4 hPa Calm     90 % 0 mm
01:32 -7.3 °C -8.1 °C 34442.4 hPa Calm     91 % 0 mm
01:37 -7.3 °C -8.2 °C 34442.4 hPa Calm     91 % 0 mm
01:42 -7.4 °C -8.2 °C 34442.4 hPa Calm     91 % 0 mm
01:52 -7.3 °C -8.1 °C 34442.4 hPa Calm     92 % 0 mm
01:57 -7.3 °C -8.2 °C 34442.4 hPa Calm     91 % 0 mm
02:02 -7.3 °C -8.1 °C 34442.4 hPa Calm     91 % 0 mm
02:12 -7.3 °C -8.3 °C 34442.4 hPa Calm     90 % 0 mm
02:17 -7.3 °C -8.3 °C 34442.4 hPa Calm     90 % 0 mm
02:22 -7.3 °C -8.3 °C 34442.4 hPa Calm     90 % 0 mm
02:32 -7.3 °C -8.3 °C 34442.4 hPa Calm     90 % 0 mm
02:37 -7.4 °C -8.4 °C 34442.4 hPa Calm     89 % 0 mm
02:42 -7.4 °C -8.4 °C 34442.4 hPa Calm     89 % 0 mm
02:52 -7.6 °C -8.6 °C 34442.4 hPa Calm     90 % 0 mm
02:57 -7.7 °C -8.6 °C 34442.4 hPa Calm     90 % 0 mm
03:02 -7.7 °C -8.6 °C 34442.4 hPa Calm     90 % 0 mm
03:12 -7.6 °C -8.4 °C 34442.4 hPa Calm     91 % 0 mm
03:17 -7.5 °C -8.3 °C 34442.4 hPa Calm     91 % 0 mm
03:22 -7.4 °C -8.3 °C 34442.4 hPa Calm     91 % 0 mm
03:27 -7.4 °C -8.3 °C 34442.4 hPa Calm     91 % 0 mm
03:32 -7.4 °C -8.3 °C 34442.4 hPa Calm     90 % 0 mm
03:37 -7.4 °C -8.2 °C 34442.4 hPa Calm     91 % 0 mm
03:42 -7.3 °C -8.2 °C 34442.4 hPa Calm     91 % 0 mm
03:52 -7.3 °C -8.2 °C 34442.4 hPa Calm     90 % 0 mm
03:57 -7.3 °C -8.2 °C 34442.4 hPa Calm     90 % 0 mm
04:02 -7.2 °C -8.2 °C 34442.4 hPa Calm     90 % 0 mm
04:12 -7.3 °C -8.2 °C 34442.4 hPa Calm     90 % 0 mm
04:17 -7.3 °C -8.2 °C 34442.4 hPa Calm     90 % 0 mm
04:22 -7.3 °C -8.3 °C 34442.4 hPa Calm     90 % 0 mm
04:32 -7.4 °C -8.4 °C 34442.4 hPa Calm     90 % 0 mm
04:37 -7.5 °C -8.3 °C 34428.8 hPa Calm     91 % 0 mm
04:42 -7.5 °C -8.3 °C 34428.8 hPa Calm     91 % 0 mm
04:47 -7.6 °C -8.4 °C 34428.8 hPa Calm     91 % 0 mm
05:02 -7.7 °C -8.4 °C 34428.8 hPa Calm     92 % 0 mm
05:07 -7.8 °C -8.5 °C 34428.8 hPa Calm     92 % 0 mm
05:12 -7.8 °C -8.6 °C 34418.7 hPa Calm     92 % 0 mm
05:27 -7.8 °C -8.4 °C 34428.8 hPa Calm     93 % 0 mm
05:32 -7.9 °C -8.5 °C 34428.8 hPa Calm     93 % 0 mm
05:42 -7.9 °C -8.6 °C 34428.8 hPa Calm     93 % 0 mm
05:52 -8.1 °C -8.7 °C 34428.8 hPa ENE 5.1 km/h   93 % 0 mm
05:57 -8.1 °C -8.7 °C 34428.8 hPa Calm   7.7 km/h 93 % 0 mm
06:02 -8.2 °C -8.8 °C 34428.8 hPa Calm   7.7 km/h 93 % 0 mm
06:07 -8.2 °C -8.8 °C 34428.8 hPa Calm   5.1 km/h 93 % 0 mm
06:12 -8.3 °C -8.9 °C 34428.8 hPa Calm   5.1 km/h 93 % 0 mm
06:22 -8.4 °C -9.1 °C 34442.4 hPa Calm   2.6 km/h 93 % 0 mm
06:32 -8.4 °C -9 °C 34442.4 hPa Calm     94 % 0 mm
06:37 -8.5 °C -9.1 °C 34442.4 hPa WNW 5.1 km/h   94 % 0 mm
06:42 -8.6 °C -9.1 °C 34442.4 hPa Calm     94 % 0 mm
06:47 -8.4 °C -8.9 °C 34442.4 hPa Calm     95 % 0 mm
06:52 -8.4 °C -8.9 °C 34442.4 hPa Calm   5.1 km/h 95 % 0 mm
06:57 -8.4 °C -8.9 °C 34442.4 hPa Calm   5.1 km/h 95 % 0 mm
07:02 -8.4 °C -8.9 °C 34442.4 hPa Calm   2.6 km/h 95 % 0 mm
07:07 -8.5 °C -8.9 °C 34452.6 hPa Calm   2.6 km/h 95 % 0 mm
07:12 -8.5 °C -8.9 °C 34442.4 hPa Calm   2.6 km/h 95 % 0 mm
07:17 -8.6 °C -9 °C 34442.4 hPa Calm   2.6 km/h 95 % 0 mm
07:22 -8.6 °C -9 °C 34452.6 hPa Calm   2.6 km/h 95 % 0 mm
07:32 -8.6 °C -9 °C 34452.6 hPa Calm   2.6 km/h 95 % 0 mm
07:42 -8.6 °C -9 °C 34452.6 hPa Calm   2.6 km/h 95 % 0 mm
07:52 -8.4 °C -8.9 °C 34452.6 hPa Calm   2.6 km/h 95 % 0 mm
08:02 -8.2 °C -8.6 °C 34452.6 hPa Calm     95 % 0 mm
08:07 -8 °C -8.4 °C 34452.6 hPa Calm   2.6 km/h 95 % 0 mm
08:12 -7.9 °C -8.3 °C 34442.4 hPa Calm   2.6 km/h 95 % 0 mm
08:17 -7.8 °C -8.2 °C 34452.6 hPa Calm   2.6 km/h 95 % 0 mm
08:22 -7.7 °C -8.2 °C 34452.6 hPa Calm   2.6 km/h 94 % 0 mm
08:32 -7.4 °C -8 °C 34452.6 hPa Calm   2.6 km/h 94 % 0 mm
08:37 -7.3 °C -7.8 °C 34452.6 hPa Calm     94 % 0 mm
08:42 -7.1 °C -7.8 °C 34452.6 hPa Calm     93 % 0 mm
08:47 -6.9 °C -7.6 °C 34442.4 hPa Calm     93 % 0 mm
08:52 -6.7 °C -7.5 °C 34442.4 hPa Calm     91 % 0 mm
09:02 -6.3 °C -7.4 °C 34452.6 hPa Calm     89 % 0 mm
09:12 -6.3 °C -7.5 °C 34442.4 hPa Calm     87 % 0 mm
09:17 -6.2 °C -7.4 °C 34442.4 hPa Calm     87 % 0 mm
09:22 -5.9 °C -7.2 °C 34442.4 hPa Calm     87 % 0 mm
09:32 -5.6 °C -7.2 °C 34442.4 hPa Calm     84 % 0 mm
09:42 -5.2 °C -7.1 °C 34442.4 hPa Calm     81 % 0 mm
09:47 -5.1 °C -6.9 °C 34442.4 hPa Calm     81 % 0 mm
09:52 -5.1 °C -7.2 °C 34442.4 hPa Calm     79 % 0 mm
09:57 -4.9 °C -7 °C 34442.4 hPa Calm   5.1 km/h 79 % 0 mm
10:02 -4.8 °C -6.9 °C 34442.4 hPa Calm   5.1 km/h 79 % 0 mm
10:12 -4.5 °C -6.9 °C 34452.6 hPa Calm   10.3 km/h 77 % 0 mm
10:17 -4.3 °C -7.1 °C 34442.4 hPa SE 2.6 km/h 7.7 km/h 74 % 0 mm
10:22 -4.3 °C -6.9 °C 34442.4 hPa Calm   7.7 km/h 75 % 0 mm
10:32 -4.1 °C -7 °C 34442.4 hPa Calm   7.7 km/h 73 % 0 mm
10:37 -4.1 °C -7.1 °C 34442.4 hPa WSW 5.1 km/h 5.1 km/h 72 % 0 mm
10:42 -4.1 °C -7 °C 34442.4 hPa SW 5.1 km/h 5.1 km/h 73 % 0 mm
10:47 -4.1 °C -7 °C 34442.4 hPa SW 5.1 km/h 7.7 km/h 73 % 0 mm
10:52 -4 °C -6.9 °C 34442.4 hPa SW 2.6 km/h 7.7 km/h 73 % 0 mm
11:02 -3.8 °C -6.8 °C 34442.4 hPa ESE 2.6 km/h 15.6 km/h 72 % 0 mm
11:07 -3.5 °C -6.7 °C 34442.4 hPa Calm   7.7 km/h 71 % 0 mm
11:12 -3.3 °C -6.6 °C 34442.4 hPa SSE 2.6 km/h 7.7 km/h 70 % 0 mm
11:17 -3.2 °C -6.9 °C 34442.4 hPa SSW 10.3 km/h 10.3 km/h 67 % 0 mm
11:22 -3.3 °C -6.7 °C 34442.4 hPa ESE 10.3 km/h 10.3 km/h 69 % 0 mm
11:32 -3 °C -6.7 °C 34442.4 hPa SW 10.3 km/h 15.6 km/h 67 % 0 mm
11:42 -2.9 °C -6.7 °C 34442.4 hPa SSW 7.7 km/h 15.6 km/h 66 % 0 mm
11:47 -2.8 °C -6.8 °C 34442.4 hPa ESE 2.6 km/h 12.9 km/h 65 % 0 mm
11:52 -2.8 °C -6.9 °C 34442.4 hPa SSW 10.3 km/h 12.9 km/h 64 % 0 mm
12:02 -2.8 °C -6.9 °C 34442.4 hPa SSE 2.6 km/h 12.9 km/h 64 % 0 mm
12:12 -2.4 °C -6.8 °C 34428.8 hPa Calm   18.2 km/h 62 % 0 mm
12:17 -2.4 °C -6.6 °C 34428.8 hPa SSW 7.7 km/h 12.9 km/h 64 % 0 mm
12:22 -2.3 °C -6.4 °C 34428.8 hPa ENE 2.6 km/h 12.9 km/h 64 % 0 mm
12:32 -2.2 °C -6.4 °C 34428.8 hPa South 12.9 km/h 12.9 km/h 63 % 0 mm
12:42 -2.2 °C -6.9 °C 34428.8 hPa NNW 5.1 km/h 15.6 km/h 60 % 0 mm
12:47 -2.3 °C -6.8 °C 34428.8 hPa ENE 5.1 km/h 15.6 km/h 61 % 0 mm
12:57 -2.1 °C -6.8 °C 34428.8 hPa Calm   18.2 km/h 60 % 0 mm
13:02 -1.7 °C -6.8 °C 34428.8 hPa East 5.1 km/h 18.2 km/h 58 % 0 mm
13:12 -1.5 °C -6.9 °C 34428.8 hPa SE 7.7 km/h 18.2 km/h 56 % 0 mm
13:17 -1.6 °C -6.9 °C 34418.7 hPa East 5.1 km/h 15.6 km/h 56 % 0 mm
13:22 -1.7 °C -6.9 °C 34418.7 hPa Calm   15.6 km/h 57 % 0 mm
13:32 -1.4 °C -7.2 °C 34418.7 hPa ENE 7.7 km/h 15.6 km/h 54 % 0 mm
13:37 -1.5 °C -6.9 °C 34418.7 hPa SE 12.9 km/h 15.6 km/h 56 % 0 mm
13:42 -1.7 °C -7.1 °C 34418.7 hPa ESE 7.7 km/h 15.6 km/h 56 % 0 mm
13:52 -1.6 °C -6.9 °C 34418.7 hPa Calm   15.6 km/h 56 % 0 mm
13:57 -1.5 °C -7.1 °C 34418.7 hPa Calm   15.6 km/h 55 % 0 mm
14:02 -1.4 °C -7.1 °C 34418.7 hPa SE 10.3 km/h 15.6 km/h 54 % 0 mm
14:12 -1.2 °C -7.1 °C 34405.1 hPa ESE 10.3 km/h 10.3 km/h 53 % 0 mm
14:17 -1.2 °C -7.3 °C 34418.7 hPa SSE 2.6 km/h 12.9 km/h 52 % 0 mm
14:22 -1.3 °C -7.2 °C 34405.1 hPa ESE 2.6 km/h 12.9 km/h 53 % 0 mm
14:32 -1.2 °C -7.3 °C 34405.1 hPa NW 5.1 km/h 12.9 km/h 52 % 0 mm
14:42 -1.2 °C -7.2 °C 34405.1 hPa North 2.6 km/h 15.6 km/h 52 % 0 mm
14:47 -1 °C -7.3 °C 34405.1 hPa SSW 7.7 km/h 15.6 km/h 51 % 0 mm
15:02 -0.9 °C -7.2 °C 34405.1 hPa South 2.6 km/h 15.6 km/h 51 % 0 mm
15:12 -0.8 °C -7.4 °C 34405.1 hPa South 2.6 km/h 23.3 km/h 49 % 0 mm
15:17 -0.8 °C -7.4 °C 34405.1 hPa WSW 5.1 km/h 12.9 km/h 49 % 0 mm
15:22 -0.7 °C -7.3 °C 34405.1 hPa Calm   12.9 km/h 49 % 0 mm
15:27 -0.7 °C -7.3 °C 34405.1 hPa WSW 10.3 km/h 12.9 km/h 49 % 0 mm
15:32 -0.7 °C -7.3 °C 34405.1 hPa NNW 7.7 km/h 12.9 km/h 49 % 0 mm
15:37 -0.7 °C -7.3 °C 34405.1 hPa SE 2.6 km/h 15.6 km/h 49 % 0 mm
15:42 -0.7 °C -7.3 °C 34395 hPa West 7.7 km/h 15.6 km/h 49 % 0 mm
15:47 -0.8 °C -7.7 °C 34395 hPa SW 7.7 km/h 18.2 km/h 48 % 0 mm
15:52 -0.9 °C -7.5 °C 34395 hPa North 5.1 km/h 18.2 km/h 49 % 0 mm
15:57 -0.9 °C -7.5 °C 34395 hPa Calm   18.2 km/h 49 % 0 mm
16:02 -0.9 °C -7.5 °C 34395 hPa NNE 5.1 km/h 18.2 km/h 49 % 0 mm
16:12 -0.9 °C -7.7 °C 34395 hPa ENE 5.1 km/h 15.6 km/h 48 % 0 mm
16:17 -0.9 °C -7.7 °C 34395 hPa NE 5.1 km/h 15.6 km/h 48 % 0 mm
16:22 -0.8 °C -7.6 °C 34395 hPa NNE 2.6 km/h 15.6 km/h 48 % 0 mm
16:32 -0.4 °C -7.6 °C 34395 hPa SSE 5.1 km/h 12.9 km/h 46 % 0 mm
16:37 -0.5 °C -7.7 °C 34395 hPa SE 2.6 km/h 15.6 km/h 46 % 0 mm
16:42 -0.4 °C -7.8 °C 34395 hPa WSW 5.1 km/h 15.6 km/h 45 % 0 mm
16:47 -0.3 °C -7.8 °C 34384.8 hPa SSW 2.6 km/h 15.6 km/h 45 % 0 mm
16:52 -0.3 °C -7.8 °C 34384.8 hPa NNW 7.7 km/h 15.6 km/h 45 % 0 mm
16:57 -0.4 °C -7.8 °C 34384.8 hPa Calm   10.3 km/h 45 % 0 mm
17:02 -0.2 °C -7.7 °C 34384.8 hPa SSW 5.1 km/h 10.3 km/h 45 % 0 mm
17:12 -0.2 °C -7.8 °C 34384.8 hPa Calm   10.3 km/h 44 % 0 mm
17:17 -0.2 °C -7.8 °C 34384.8 hPa Calm   10.3 km/h 44 % 0 mm
17:22 -0.2 °C -7.8 °C 34384.8 hPa ENE 7.7 km/h 10.3 km/h 44 % 0 mm
17:27 -0.4 °C -8.1 °C 34384.8 hPa ESE 2.6 km/h 12.9 km/h 44 % 0 mm
17:32 -0.4 °C -7.8 °C 34384.8 hPa North 2.6 km/h 12.9 km/h 45 % 0 mm
17:37 -0.2 °C -7.7 °C 34384.8 hPa WNW 2.6 km/h 12.9 km/h 45 % 0 mm
17:42 -0.2 °C -7.8 °C 34384.8 hPa NNW 2.6 km/h 12.9 km/h 44 % 0 mm
17:47 -0.3 °C -7.8 °C 34384.8 hPa NNE 7.7 km/h 12.9 km/h 45 % 0 mm
17:52 -0.4 °C -7.7 °C 34384.8 hPa East 10.3 km/h 12.9 km/h 46 % 0 mm
17:57 -0.5 °C -7.5 °C 34384.8 hPa ENE 10.3 km/h 18.2 km/h 47 % 0 mm
18:02 -0.6 °C -7.6 °C 34371.3 hPa NE 7.7 km/h 18.2 km/h 47 % 0 mm
18:12 -0.6 °C -7.8 °C 34371.3 hPa NE 10.3 km/h 18.2 km/h 46 % 0 mm
18:17 -0.7 °C -7.7 °C 34371.3 hPa ENE 5.1 km/h 15.6 km/h 47 % 0 mm
18:22 -0.7 °C -7.9 °C 34371.3 hPa NNE 7.7 km/h 15.6 km/h 46 % 0 mm
18:32 -0.7 °C -7.9 °C 34371.3 hPa ENE 2.6 km/h 15.6 km/h 46 % 0 mm
18:37 -0.7 °C -7.9 °C 34371.3 hPa NE 15.6 km/h 15.6 km/h 46 % 0 mm
18:42 -0.7 °C -7.9 °C 34371.3 hPa ENE 5.1 km/h 18.2 km/h 46 % 0 mm
18:47 -0.8 °C -7.9 °C 34371.3 hPa NE 5.1 km/h 18.2 km/h 46 % 0 mm
18:57 -0.9 °C -7.9 °C 34371.3 hPa Calm   10.3 km/h 47 % 0 mm
19:02 -0.9 °C -7.7 °C 34361.1 hPa NNE 2.6 km/h 10.3 km/h 48 % 0 mm
19:12 -1.1 °C -7.8 °C 34361.1 hPa NE 5.1 km/h 12.9 km/h 48 % 0 mm
19:17 -1.2 °C -7.8 °C 34361.1 hPa NE 12.9 km/h 15.6 km/h 49 % 0 mm
19:22 -1.2 °C -7.8 °C 34361.1 hPa NE 2.6 km/h 15.6 km/h 49 % 0 mm
19:32 -1.2 °C -7.8 °C 34361.1 hPa NNE 2.6 km/h 15.6 km/h 49 % 0 mm
19:37 -1.2 °C -7.8 °C 34361.1 hPa NE 7.7 km/h 12.9 km/h 49 % 0 mm
19:42 -1.3 °C -7.7 °C 34361.1 hPa NE 2.6 km/h 12.9 km/h 50 % 0 mm
19:47 -1.3 °C -7.5 °C 34361.1 hPa Calm   10.3 km/h 51 % 0 mm
19:52 -1.3 °C -7.5 °C 34361.1 hPa Calm   10.3 km/h 51 % 0 mm
20:02 -1.5 °C -7.4 °C 34361.1 hPa NE 2.6 km/h 7.7 km/h 53 % 0 mm
20:07 -1.6 °C -7.3 °C 34361.1 hPa NNE 2.6 km/h 5.1 km/h 54 % 0 mm
20:12 -1.8 °C -7.3 °C 34361.1 hPa NNE 12.9 km/h 12.9 km/h 55 % 0 mm
20:17 -2 °C -7.2 °C 34371.3 hPa NNW 7.7 km/h 18.2 km/h 57 % 0 mm
20:22 -2.1 °C -7 °C 34371.3 hPa NNE 5.1 km/h 18.2 km/h 59 % 0 mm
20:32 -2.4 °C -6.8 °C 34371.3 hPa NE 5.1 km/h 18.2 km/h 62 % 0 mm
20:42 -2.7 °C -6.9 °C 34384.8 hPa NNW 10.3 km/h 15.6 km/h 63 % 0 mm
20:52 -2.8 °C -6.9 °C 34384.8 hPa NNE 7.7 km/h 18.2 km/h 64 % 0 mm
20:57 -2.9 °C -6.9 °C 34384.8 hPa North 10.3 km/h 15.6 km/h 65 % 0 mm
21:02 -3 °C -6.8 °C 34384.8 hPa North 2.6 km/h 15.6 km/h 66 % 0 mm
21:12 -3.2 °C -6.9 °C 34384.8 hPa NNW 5.1 km/h 10.3 km/h 67 % 0 mm
21:17 -3.4 °C -6.9 °C 34395 hPa Calm   10.3 km/h 68 % 0 mm
21:22 -3.4 °C -7 °C 34395 hPa NW 5.1 km/h 10.3 km/h 68 % 0 mm
21:32 -3.6 °C -6.9 °C 34395 hPa NW 2.6 km/h 7.7 km/h 69 % 0 mm
21:42 -3.7 °C -7.1 °C 34405.1 hPa NW 2.6 km/h 7.7 km/h 69 % 0 mm
21:47 -3.7 °C -7 °C 34405.1 hPa North 12.9 km/h 12.9 km/h 70 % 0 mm
21:52 -3.7 °C -7 °C 34405.1 hPa North 12.9 km/h 12.9 km/h 70 % 0 mm
22:02 -3.8 °C -7.1 °C 34405.1 hPa NNW 5.1 km/h 15.6 km/h 70 % 0 mm
22:12 -3.9 °C -7.1 °C 34405.1 hPa NNE 2.6 km/h 15.6 km/h 71 % 0 mm
22:22 -4.1 °C -7.1 °C 34405.1 hPa North 2.6 km/h 12.9 km/h 72 % 0 mm
22:27 -4.1 °C -7 °C 34405.1 hPa North 7.7 km/h 18.2 km/h 73 % 0 mm
22:32 -4.1 °C -7 °C 34405.1 hPa North 10.3 km/h 18.2 km/h 73 % 0 mm
22:37 -4.2 °C -7.1 °C 34405.1 hPa North 7.7 km/h 18.2 km/h 73 % 0 mm
22:42 -4.2 °C -7.1 °C 34405.1 hPa NNE 7.7 km/h 18.2 km/h 73 % 0 mm
22:47 -4.2 °C -7.1 °C 34405.1 hPa NE 10.3 km/h 18.2 km/h 73 % 0 mm
22:57 -4.3 °C -7 °C 34405.1 hPa Calm   18.2 km/h 74 % 0 mm
23:02 -4.3 °C -7.1 °C 34405.1 hPa NNW 5.1 km/h 18.2 km/h 74 % 0 mm
23:07 -4.4 °C -7.1 °C 34405.1 hPa NNW 7.7 km/h 15.6 km/h 74 % 0 mm
23:12 -4.4 °C -7.1 °C 34405.1 hPa NNW 5.1 km/h 15.6 km/h 75 % 0 mm
23:17 -4.5 °C -7.1 °C 34405.1 hPa NNW 7.7 km/h 15.6 km/h 75 % 0 mm
23:22 -4.6 °C -7.2 °C 34405.1 hPa North 7.7 km/h 15.6 km/h 75 % 0 mm
23:32 -4.6 °C -7.1 °C 34405.1 hPa North 5.1 km/h 15.6 km/h 76 % 0 mm
23:37 -4.7 °C -7.2 °C 34418.7 hPa North 10.3 km/h 15.6 km/h 76 % 0 mm
23:42 -4.7 °C -7.2 °C 34405.1 hPa North 7.7 km/h 15.6 km/h 76 % 0 mm
23:47 -4.7 °C -7.2 °C 34418.7 hPa NNW 2.6 km/h 12.9 km/h 76 % 0 mm
23:52 -4.7 °C -7.2 °C 34418.7 hPa North 10.3 km/h 12.9 km/h 76 % 0 mm
Meteo18
Compliments of Weather Underground - 4 mb

Script developed by  Jim McMurry - jmcmurry@mwt.net Adapted for the template by  Wim van der Kuil - Leuven-Template.eu

You find our weather info also at:

European Weather Network

Weather Underground

Equipment we use:

Weather-station
Davis Vue

Weather-program
Meteobridge

Weather-server
Raspberry PI 2 B+

Provider
1 and 1

Davis Vue

Meteobridge

Raspberry PI 2 B+

1 and 1